sensor_id;sensor_type;location;lat;lon;timestamp;P1;durP1;ratioP1;P2;durP2;ratioP2
46689;SDS011;32423;45.398;10.874;2024-03-23T00:53:33;25.33;;;12.43;;
46689;SDS011;32423;45.398;10.874;2024-03-23T00:56:28;26.40;;;13.05;;
46689;SDS011;32423;45.398;10.874;2024-03-23T00:59:18;24.35;;;11.32;;
46689;SDS011;32423;45.398;10.874;2024-03-23T01:02:09;20.48;;;12.15;;
46689;SDS011;32423;45.398;10.874;2024-03-23T01:05:04;21.90;;;12.82;;
46689;SDS011;32423;45.398;10.874;2024-03-23T01:07:56;23.30;;;13.52;;
46689;SDS011;32423;45.398;10.874;2024-03-23T01:10:53;23.63;;;13.82;;
46689;SDS011;32423;45.398;10.874;2024-03-23T01:13:47;22.95;;;13.02;;
46689;SDS011;32423;45.398;10.874;2024-03-23T01:16:37;27.52;;;13.40;;
46689;SDS011;32423;45.398;10.874;2024-03-23T01:19:31;25.00;;;11.43;;
46689;SDS011;32423;45.398;10.874;2024-03-23T01:22:23;35.07;;;15.57;;
46689;SDS011;32423;45.398;10.874;2024-03-23T01:25:15;24.58;;;12.65;;
46689;SDS011;32423;45.398;10.874;2024-03-23T01:28:13;26.95;;;9.48;;
46689;SDS011;32423;45.398;10.874;2024-03-23T01:31:08;26.90;;;11.60;;
46689;SDS011;32423;45.398;10.874;2024-03-23T01:34:02;26.35;;;13.73;;
46689;SDS011;32423;45.398;10.874;2024-03-23T01:36:57;16.00;;;9.70;;
46689;SDS011;32423;45.398;10.874;2024-03-23T01:39:51;30.67;;;13.67;;
46689;SDS011;32423;45.398;10.874;2024-03-23T01:42:54;25.87;;;10.53;;
46689;SDS011;32423;45.398;10.874;2024-03-23T01:45:50;22.67;;;12.73;;
46689;SDS011;32423;45.398;10.874;2024-03-23T01:48:44;28.30;;;12.57;;
46689;SDS011;32423;45.398;10.874;2024-03-23T01:51:40;20.13;;;11.45;;
46689;SDS011;32423;45.398;10.874;2024-03-23T01:54:34;23.67;;;12.00;;
46689;SDS011;32423;45.398;10.874;2024-03-23T01:57:28;19.85;;;11.43;;
46689;SDS011;32423;45.398;10.874;2024-03-23T02:00:22;22.08;;;12.45;;
46689;SDS011;32423;45.398;10.874;2024-03-23T02:03:26;24.37;;;12.00;;
46689;SDS011;32423;45.398;10.874;2024-03-23T02:06:18;25.75;;;12.48;;
46689;SDS011;32423;45.398;10.874;2024-03-23T02:09:13;21.53;;;12.00;;
46689;SDS011;32423;45.398;10.874;2024-03-23T02:12:07;27.60;;;11.52;;
46689;SDS011;32423;45.398;10.874;2024-03-23T02:15:02;20.30;;;11.02;;
46689;SDS011;32423;45.398;10.874;2024-03-23T02:17:55;20.92;;;10.65;;
46689;SDS011;32423;45.398;10.874;2024-03-23T02:20:49;21.53;;;11.77;;
46689;SDS011;32423;45.398;10.874;2024-03-23T02:23:42;25.20;;;12.13;;
46689;SDS011;32423;45.398;10.874;2024-03-23T02:26:34;21.65;;;12.43;;
46689;SDS011;32423;45.398;10.874;2024-03-23T02:29:28;21.10;;;12.30;;
46689;SDS011;32423;45.398;10.874;2024-03-23T02:32:23;22.23;;;11.57;;
46689;SDS011;32423;45.398;10.874;2024-03-23T02:35:17;20.55;;;11.93;;
46689;SDS011;32423;45.398;10.874;2024-03-23T02:38:09;23.88;;;12.85;;
46689;SDS011;32423;45.398;10.874;2024-03-23T02:41:07;20.55;;;11.70;;
46689;SDS011;32423;45.398;10.874;2024-03-23T02:44:01;23.05;;;11.55;;
46689;SDS011;32423;45.398;10.874;2024-03-23T02:46:56;25.77;;;11.40;;
46689;SDS011;32423;45.398;10.874;2024-03-23T02:49:50;25.67;;;13.03;;
46689;SDS011;32423;45.398;10.874;2024-03-23T02:52:41;21.77;;;11.55;;
46689;SDS011;32423;45.398;10.874;2024-03-23T02:55:33;22.85;;;11.27;;
46689;SDS011;32423;45.398;10.874;2024-03-23T02:58:27;20.27;;;12.18;;
46689;SDS011;32423;45.398;10.874;2024-03-23T03:01:22;18.67;;;11.07;;
46689;SDS011;32423;45.398;10.874;2024-03-23T03:04:16;20.10;;;11.13;;
46689;SDS011;32423;45.398;10.874;2024-03-23T03:07:11;20.98;;;11.73;;
46689;SDS011;32423;45.398;10.874;2024-03-23T03:10:06;16.58;;;8.82;;
46689;SDS011;32423;45.398;10.874;2024-03-23T03:12:58;24.50;;;12.50;;
46689;SDS011;32423;45.398;10.874;2024-03-23T03:15:52;18.98;;;11.23;;
46689;SDS011;32423;45.398;10.874;2024-03-23T03:18:47;20.40;;;11.07;;
46689;SDS011;32423;45.398;10.874;2024-03-23T03:21:41;21.70;;;9.33;;
46689;SDS011;32423;45.398;10.874;2024-03-23T03:24:36;17.35;;;8.40;;
46689;SDS011;32423;45.398;10.874;2024-03-23T03:27:29;26.02;;;12.40;;
46689;SDS011;32423;45.398;10.874;2024-03-23T03:30:23;17.73;;;8.53;;
46689;SDS011;32423;45.398;10.874;2024-03-23T03:33:18;26.03;;;12.00;;
46689;SDS011;32423;45.398;10.874;2024-03-23T03:36:12;17.80;;;10.25;;
46689;SDS011;32423;45.398;10.874;2024-03-23T03:39:07;23.33;;;11.33;;
46689;SDS011;32423;45.398;10.874;2024-03-23T03:42:01;18.60;;;10.98;;
46689;SDS011;32423;45.398;10.874;2024-03-23T03:44:56;26.63;;;13.25;;
46689;SDS011;32423;45.398;10.874;2024-03-23T03:47:51;22.40;;;11.38;;
46689;SDS011;32423;45.398;10.874;2024-03-23T03:50:45;18.83;;;10.47;;
46689;SDS011;32423;45.398;10.874;2024-03-23T03:53:40;17.63;;;8.97;;
46689;SDS011;32423;45.398;10.874;2024-03-23T03:56:34;22.83;;;10.03;;
46689;SDS011;32423;45.398;10.874;2024-03-23T03:59:27;21.98;;;11.80;;
46689;SDS011;32423;45.398;10.874;2024-03-23T04:02:21;20.53;;;10.73;;
46689;SDS011;32423;45.398;10.874;2024-03-23T04:05:13;21.52;;;11.93;;
46689;SDS011;32423;45.398;10.874;2024-03-23T04:08:08;19.67;;;10.87;;
46689;SDS011;32423;45.398;10.874;2024-03-23T04:11:02;20.47;;;10.20;;
46689;SDS011;32423;45.398;10.874;2024-03-23T04:13:57;19.47;;;10.67;;
46689;SDS011;32423;45.398;10.874;2024-03-23T04:16:55;16.55;;;9.73;;
46689;SDS011;32423;45.398;10.874;2024-03-23T04:19:47;21.33;;;10.70;;
46689;SDS011;32423;45.398;10.874;2024-03-23T04:22:41;19.48;;;11.30;;
46689;SDS011;32423;45.398;10.874;2024-03-23T04:25:36;18.52;;;10.60;;
46689;SDS011;32423;45.398;10.874;2024-03-23T04:28:30;18.80;;;9.13;;
46689;SDS011;32423;45.398;10.874;2024-03-23T04:31:25;21.45;;;10.13;;
46689;SDS011;32423;45.398;10.874;2024-03-23T04:34:19;19.33;;;8.60;;
46689;SDS011;32423;45.398;10.874;2024-03-23T04:37:11;20.03;;;11.10;;
46689;SDS011;32423;45.398;10.874;2024-03-23T04:40:11;16.95;;;9.57;;
46689;SDS011;32423;45.398;10.874;2024-03-23T04:43:03;23.65;;;10.43;;
46689;SDS011;32423;45.398;10.874;2024-03-23T04:45:55;25.65;;;11.68;;
46689;SDS011;32423;45.398;10.874;2024-03-23T04:48:47;22.45;;;11.05;;
46689;SDS011;32423;45.398;10.874;2024-03-23T04:51:40;19.85;;;10.38;;
46689;SDS011;32423;45.398;10.874;2024-03-23T04:54:35;16.60;;;7.63;;
46689;SDS011;32423;45.398;10.874;2024-03-23T04:57:29;30.63;;;9.33;;
46689;SDS011;32423;45.398;10.874;2024-03-23T05:00:24;18.37;;;10.20;;
46689;SDS011;32423;45.398;10.874;2024-03-23T05:03:18;25.10;;;10.40;;
46689;SDS011;32423;45.398;10.874;2024-03-23T05:06:10;17.27;;;10.30;;
46689;SDS011;32423;45.398;10.874;2024-03-23T05:09:05;21.95;;;11.10;;
46689;SDS011;32423;45.398;10.874;2024-03-23T05:11:58;25.70;;;10.35;;
46689;SDS011;32423;45.398;10.874;2024-03-23T05:14:53;24.30;;;11.00;;
46689;SDS011;32423;45.398;10.874;2024-03-23T05:17:45;22.48;;;12.27;;
46689;SDS011;32423;45.398;10.874;2024-03-23T05:20:39;24.35;;;11.05;;
46689;SDS011;32423;45.398;10.874;2024-03-23T05:23:34;43.63;;;18.87;;
46689;SDS011;32423;45.398;10.874;2024-03-23T05:26:28;71.07;;;32.67;;
46689;SDS011;32423;45.398;10.874;2024-03-23T05:29:20;96.53;;;40.13;;
46689;SDS011;32423;45.398;10.874;2024-03-23T05:32:13;92.60;;;40.67;;
46689;SDS011;32423;45.398;10.874;2024-03-23T05:35:05;124.45;;;53.67;;
46689;SDS011;32423;45.398;10.874;2024-03-23T05:38:00;132.10;;;52.08;;
46689;SDS011;32423;45.398;10.874;2024-03-23T05:41:01;86.13;;;35.55;;
46689;SDS011;32423;45.398;10.874;2024-03-23T05:43:56;63.90;;;28.17;;
46689;SDS011;32423;45.398;10.874;2024-03-23T05:46:48;38.87;;;19.03;;
46689;SDS011;32423;45.398;10.874;2024-03-23T05:49:42;39.13;;;17.42;;
46689;SDS011;32423;45.398;10.874;2024-03-23T05:52:35;35.65;;;16.02;;
46689;SDS011;32423;45.398;10.874;2024-03-23T05:55:27;26.50;;;14.07;;
46689;SDS011;32423;45.398;10.874;2024-03-23T05:58:20;25.13;;;12.85;;
46689;SDS011;32423;45.398;10.874;2024-03-23T06:01:12;24.63;;;11.60;;
46689;SDS011;32423;45.398;10.874;2024-03-23T06:04:04;23.63;;;10.88;;
46689;SDS011;32423;45.398;10.874;2024-03-23T06:07:01;26.73;;;12.43;;
46689;SDS011;32423;45.398;10.874;2024-03-23T06:09:53;24.02;;;12.90;;
46689;SDS011;32423;45.398;10.874;2024-03-23T06:12:53;22.85;;;11.43;;
46689;SDS011;32423;45.398;10.874;2024-03-23T06:15:48;25.85;;;13.15;;
46689;SDS011;32423;45.398;10.874;2024-03-23T06:18:42;19.53;;;10.50;;
46689;SDS011;32423;45.398;10.874;2024-03-23T06:21:37;23.60;;;10.82;;
46689;SDS011;32423;45.398;10.874;2024-03-23T06:24:32;27.52;;;12.45;;
46689;SDS011;32423;45.398;10.874;2024-03-23T06:27:26;31.85;;;12.27;;
46689;SDS011;32423;45.398;10.874;2024-03-23T06:30:24;26.33;;;13.80;;
46689;SDS011;32423;45.398;10.874;2024-03-23T06:33:18;19.80;;;10.80;;
46689;SDS011;32423;45.398;10.874;2024-03-23T06:36:13;17.57;;;9.70;;
46689;SDS011;32423;45.398;10.874;2024-03-23T06:39:08;23.48;;;12.77;;
46689;SDS011;32423;45.398;10.874;2024-03-23T06:42:03;25.95;;;12.60;;
46689;SDS011;32423;45.398;10.874;2024-03-23T06:44:58;28.52;;;13.38;;
46689;SDS011;32423;45.398;10.874;2024-03-23T06:47:50;24.55;;;13.13;;
46689;SDS011;32423;45.398;10.874;2024-03-23T06:50:44;32.42;;;14.38;;
46689;SDS011;32423;45.398;10.874;2024-03-23T06:53:36;20.17;;;9.38;;
46689;SDS011;32423;45.398;10.874;2024-03-23T06:56:36;30.08;;;13.70;;
46689;SDS011;32423;45.398;10.874;2024-03-23T06:59:31;27.85;;;13.05;;
46689;SDS011;32423;45.398;10.874;2024-03-23T07:02:25;56.33;;;16.47;;
46689;SDS011;32423;45.398;10.874;2024-03-23T07:05:14;25.77;;;13.50;;
46689;SDS011;32423;45.398;10.874;2024-03-23T07:08:07;23.35;;;12.90;;
46689;SDS011;32423;45.398;10.874;2024-03-23T07:11:01;21.88;;;10.30;;
46689;SDS011;32423;45.398;10.874;2024-03-23T07:13:49;30.38;;;11.73;;
46689;SDS011;32423;45.398;10.874;2024-03-23T07:16:43;27.33;;;12.32;;
46689;SDS011;32423;45.398;10.874;2024-03-23T07:19:38;16.53;;;9.53;;
46689;SDS011;32423;45.398;10.874;2024-03-23T07:22:32;21.77;;;11.13;;
46689;SDS011;32423;45.398;10.874;2024-03-23T07:25:27;15.93;;;8.83;;
46689;SDS011;32423;45.398;10.874;2024-03-23T07:28:22;30.83;;;12.18;;
46689;SDS011;32423;45.398;10.874;2024-03-23T07:31:14;26.45;;;11.77;;
46689;SDS011;32423;45.398;10.874;2024-03-23T07:34:08;26.20;;;11.93;;
46689;SDS011;32423;45.398;10.874;2024-03-23T07:37:01;28.70;;;11.68;;
46689;SDS011;32423;45.398;10.874;2024-03-23T07:39:53;29.83;;;13.00;;
46689;SDS011;32423;45.398;10.874;2024-03-23T07:42:47;24.48;;;12.25;;
46689;SDS011;32423;45.398;10.874;2024-03-23T07:45:42;25.63;;;12.27;;
46689;SDS011;32423;45.398;10.874;2024-03-23T07:48:34;28.55;;;12.85;;
46689;SDS011;32423;45.398;10.874;2024-03-23T07:51:28;22.83;;;11.90;;
46689;SDS011;32423;45.398;10.874;2024-03-23T07:54:23;27.55;;;12.68;;
46689;SDS011;32423;45.398;10.874;2024-03-23T07:57:17;19.07;;;9.90;;
46689;SDS011;32423;45.398;10.874;2024-03-23T08:00:15;22.30;;;11.70;;
46689;SDS011;32423;45.398;10.874;2024-03-23T08:03:10;20.33;;;11.27;;
46689;SDS011;32423;45.398;10.874;2024-03-23T08:06:10;20.35;;;11.65;;
46689;SDS011;32423;45.398;10.874;2024-03-23T08:09:05;22.40;;;11.52;;
46689;SDS011;32423;45.398;10.874;2024-03-23T08:11:57;21.00;;;12.98;;
46689;SDS011;32423;45.398;10.874;2024-03-23T08:14:52;28.17;;;13.30;;
46689;SDS011;32423;45.398;10.874;2024-03-23T08:17:46;29.80;;;13.60;;
46689;SDS011;32423;45.398;10.874;2024-03-23T08:20:38;27.15;;;13.38;;
46689;SDS011;32423;45.398;10.874;2024-03-23T08:23:36;23.33;;;13.10;;
46689;SDS011;32423;45.398;10.874;2024-03-23T08:26:28;24.83;;;14.07;;
46689;SDS011;32423;45.398;10.874;2024-03-23T08:29:16;30.63;;;14.55;;
46689;SDS011;32423;45.398;10.874;2024-03-23T08:32:08;37.90;;;14.43;;
46689;SDS011;32423;45.398;10.874;2024-03-23T08:35:03;30.85;;;14.85;;
46689;SDS011;32423;45.398;10.874;2024-03-23T08:37:57;20.77;;;12.97;;
46689;SDS011;32423;45.398;10.874;2024-03-23T08:41:04;23.52;;;14.10;;
46689;SDS011;32423;45.398;10.874;2024-03-23T08:44:00;42.80;;;13.73;;
46689;SDS011;32423;45.398;10.874;2024-03-23T08:46:55;25.33;;;13.50;;
46689;SDS011;32423;45.398;10.874;2024-03-23T08:49:50;25.35;;;13.05;;
46689;SDS011;32423;45.398;10.874;2024-03-23T08:52:42;23.77;;;13.43;;
46689;SDS011;32423;45.398;10.874;2024-03-23T08:55:37;26.65;;;14.43;;
46689;SDS011;32423;45.398;10.874;2024-03-23T08:58:32;23.95;;;12.82;;
46689;SDS011;32423;45.398;10.874;2024-03-23T09:01:27;24.77;;;14.65;;
46689;SDS011;32423;45.398;10.874;2024-03-23T09:04:22;25.30;;;13.70;;
46689;SDS011;32423;45.398;10.874;2024-03-23T09:07:16;24.98;;;13.65;;
46689;SDS011;32423;45.398;10.874;2024-03-23T09:10:11;22.35;;;12.57;;
46689;SDS011;32423;45.398;10.874;2024-03-23T09:13:01;24.92;;;13.90;;
46689;SDS011;32423;45.398;10.874;2024-03-23T09:15:53;24.02;;;13.73;;
46689;SDS011;32423;45.398;10.874;2024-03-23T09:18:47;21.55;;;12.15;;
46689;SDS011;32423;45.398;10.874;2024-03-23T09:24:29;28.20;;;13.80;;
46689;SDS011;32423;45.398;10.874;2024-03-23T09:30:13;21.42;;;12.93;;
46689;SDS011;32423;45.398;10.874;2024-03-23T09:33:08;19.83;;;12.30;;
46689;SDS011;32423;45.398;10.874;2024-03-23T09:36:05;26.05;;;13.32;;
46689;SDS011;32423;45.398;10.874;2024-03-23T09:39:00;22.52;;;14.05;;
46689;SDS011;32423;45.398;10.874;2024-03-23T09:41:56;25.08;;;13.90;;
46689;SDS011;32423;45.398;10.874;2024-03-23T09:44:48;21.48;;;14.05;;
46689;SDS011;32423;45.398;10.874;2024-03-23T09:47:44;24.80;;;14.57;;
46689;SDS011;32423;45.398;10.874;2024-03-23T09:50:41;26.73;;;14.20;;
46689;SDS011;32423;45.398;10.874;2024-03-23T09:53:33;22.55;;;12.82;;
46689;SDS011;32423;45.398;10.874;2024-03-23T09:56:28;23.00;;;14.43;;
46689;SDS011;32423;45.398;10.874;2024-03-23T10:02:13;22.55;;;13.60;;
46689;SDS011;32423;45.398;10.874;2024-03-23T10:05:20;18.20;;;12.10;;
46689;SDS011;32423;45.398;10.874;2024-03-23T10:08:17;22.00;;;13.80;;
46689;SDS011;32423;45.398;10.874;2024-03-23T10:11:15;26.17;;;15.23;;
46689;SDS011;32423;45.398;10.874;2024-03-23T10:14:05;23.27;;;14.18;;
46689;SDS011;32423;45.398;10.874;2024-03-23T10:16:52;22.77;;;14.15;;
46689;SDS011;32423;45.398;10.874;2024-03-23T10:19:44;24.42;;;14.20;;
46689;SDS011;32423;45.398;10.874;2024-03-23T10:22:41;21.92;;;13.88;;
46689;SDS011;32423;45.398;10.874;2024-03-23T10:25:36;25.23;;;14.32;;
46689;SDS011;32423;45.398;10.874;2024-03-23T10:28:28;23.73;;;14.15;;
46689;SDS011;32423;45.398;10.874;2024-03-23T10:31:20;23.55;;;15.10;;
46689;SDS011;32423;45.398;10.874;2024-03-23T10:34:14;18.40;;;11.98;;
46689;SDS011;32423;45.398;10.874;2024-03-23T10:37:16;19.90;;;12.40;;
46689;SDS011;32423;45.398;10.874;2024-03-23T10:40:10;22.38;;;12.70;;
46689;SDS011;32423;45.398;10.874;2024-03-23T10:43:04;22.42;;;14.05;;
46689;SDS011;32423;45.398;10.874;2024-03-23T10:45:57;20.77;;;13.05;;
46689;SDS011;32423;45.398;10.874;2024-03-23T10:48:48;21.05;;;13.00;;
46689;SDS011;32423;45.398;10.874;2024-03-23T10:51:43;21.02;;;12.40;;
46689;SDS011;32423;45.398;10.874;2024-03-23T10:54:34;20.25;;;12.30;;
46689;SDS011;32423;45.398;10.874;2024-03-23T10:57:30;16.92;;;11.10;;
46689;SDS011;32423;45.398;10.874;2024-03-23T11:00:28;32.63;;;13.52;;
46689;SDS011;32423;45.398;10.874;2024-03-23T11:03:32;26.33;;;13.07;;
46689;SDS011;32423;45.398;10.874;2024-03-23T11:09:41;21.48;;;12.35;;
46689;SDS011;32423;45.398;10.874;2024-03-23T11:12:34;21.90;;;12.80;;
46689;SDS011;32423;45.398;10.874;2024-03-23T11:15:29;19.55;;;12.77;;
46689;SDS011;32423;45.398;10.874;2024-03-23T11:18:26;17.65;;;12.23;;
46689;SDS011;32423;45.398;10.874;2024-03-23T11:24:49;21.30;;;13.57;;
46689;SDS011;32423;45.398;10.874;2024-03-23T11:27:45;15.77;;;12.65;;
46689;SDS011;32423;45.398;10.874;2024-03-23T11:30:34;19.35;;;11.15;;
46689;SDS011;32423;45.398;10.874;2024-03-23T11:33:27;16.27;;;11.20;;
46689;SDS011;32423;45.398;10.874;2024-03-23T11:36:22;21.10;;;11.93;;
46689;SDS011;32423;45.398;10.874;2024-03-23T11:39:16;22.85;;;12.65;;
46689;SDS011;32423;45.398;10.874;2024-03-23T11:42:07;17.08;;;11.85;;
46689;SDS011;32423;45.398;10.874;2024-03-23T11:45:06;30.33;;;12.52;;
46689;SDS011;32423;45.398;10.874;2024-03-23T11:53:46;16.67;;;10.60;;
46689;SDS011;32423;45.398;10.874;2024-03-23T11:56:38;19.08;;;11.70;;
46689;SDS011;32423;45.398;10.874;2024-03-23T11:59:40;20.00;;;11.85;;
46689;SDS011;32423;45.398;10.874;2024-03-23T12:02:31;20.63;;;12.98;;
46689;SDS011;32423;45.398;10.874;2024-03-23T12:05:18;20.15;;;12.10;;
46689;SDS011;32423;45.398;10.874;2024-03-23T12:08:20;16.45;;;12.48;;
46689;SDS011;32423;45.398;10.874;2024-03-23T12:11:12;19.35;;;12.52;;
46689;SDS011;32423;45.398;10.874;2024-03-23T12:14:00;18.50;;;12.25;;
46689;SDS011;32423;45.398;10.874;2024-03-23T12:16:50;28.60;;;13.15;;
46689;SDS011;32423;45.398;10.874;2024-03-23T12:19:43;24.90;;;12.15;;
46689;SDS011;32423;45.398;10.874;2024-03-23T12:22:30;30.33;;;12.55;;
46689;SDS011;32423;45.398;10.874;2024-03-23T12:25:23;20.27;;;12.85;;
46689;SDS011;32423;45.398;10.874;2024-03-23T12:28:12;17.58;;;12.60;;
46689;SDS011;32423;45.398;10.874;2024-03-23T12:31:00;20.63;;;12.55;;
46689;SDS011;32423;45.398;10.874;2024-03-23T12:33:50;19.88;;;13.20;;
46689;SDS011;32423;45.398;10.874;2024-03-23T12:36:42;18.40;;;11.40;;
46689;SDS011;32423;45.398;10.874;2024-03-23T12:39:34;18.58;;;12.05;;
46689;SDS011;32423;45.398;10.874;2024-03-23T12:45:16;20.23;;;11.77;;
46689;SDS011;32423;45.398;10.874;2024-03-23T12:48:06;15.05;;;10.63;;
46689;SDS011;32423;45.398;10.874;2024-03-23T12:50:56;18.63;;;12.52;;
46689;SDS011;32423;45.398;10.874;2024-03-23T12:53:43;18.95;;;13.32;;
46689;SDS011;32423;45.398;10.874;2024-03-23T12:56:33;20.55;;;13.48;;
46689;SDS011;32423;45.398;10.874;2024-03-23T12:59:23;27.77;;;14.20;;
46689;SDS011;32423;45.398;10.874;2024-03-23T13:02:26;23.27;;;12.95;;
46689;SDS011;32423;45.398;10.874;2024-03-23T13:08:13;19.30;;;14.35;;
46689;SDS011;32423;45.398;10.874;2024-03-23T13:11:05;19.08;;;12.50;;
46689;SDS011;32423;45.398;10.874;2024-03-23T13:14:00;19.58;;;11.82;;
46689;SDS011;32423;45.398;10.874;2024-03-23T13:16:53;17.23;;;10.32;;
46689;SDS011;32423;45.398;10.874;2024-03-23T13:19:47;36.80;;;11.60;;
46689;SDS011;32423;45.398;10.874;2024-03-23T13:22:42;18.13;;;11.07;;
46689;SDS011;32423;45.398;10.874;2024-03-23T13:25:34;20.15;;;10.73;;
46689;SDS011;32423;45.398;10.874;2024-03-23T13:28:26;19.05;;;11.45;;
46689;SDS011;32423;45.398;10.874;2024-03-23T13:31:21;28.17;;;12.68;;
46689;SDS011;32423;45.398;10.874;2024-03-23T13:34:16;21.52;;;12.52;;
46689;SDS011;32423;45.398;10.874;2024-03-23T13:37:10;17.95;;;11.07;;
46689;SDS011;32423;45.398;10.874;2024-03-23T13:40:05;17.73;;;12.15;;
46689;SDS011;32423;45.398;10.874;2024-03-23T13:42:53;21.58;;;12.48;;
46689;SDS011;32423;45.398;10.874;2024-03-23T13:45:46;19.20;;;11.63;;
46689;SDS011;32423;45.398;10.874;2024-03-23T13:48:42;20.10;;;12.10;;
46689;SDS011;32423;45.398;10.874;2024-03-23T13:51:37;47.47;;;14.93;;
46689;SDS011;32423;45.398;10.874;2024-03-23T13:54:31;21.83;;;13.35;;
46689;SDS011;32423;45.398;10.874;2024-03-23T13:57:26;20.27;;;12.80;;
46689;SDS011;32423;45.398;10.874;2024-03-23T14:00:18;27.60;;;13.50;;
46689;SDS011;32423;45.398;10.874;2024-03-23T14:03:13;20.27;;;12.35;;
46689;SDS011;32423;45.398;10.874;2024-03-23T14:06:07;19.48;;;12.45;;
46689;SDS011;32423;45.398;10.874;2024-03-23T14:09:02;17.95;;;12.43;;
46689;SDS011;32423;45.398;10.874;2024-03-23T14:11:58;16.98;;;11.32;;
46689;SDS011;32423;45.398;10.874;2024-03-23T14:14:47;24.10;;;12.57;;
46689;SDS011;32423;45.398;10.874;2024-03-23T14:17:42;21.45;;;11.77;;
46689;SDS011;32423;45.398;10.874;2024-03-23T14:20:31;15.95;;;9.95;;
46689;SDS011;32423;45.398;10.874;2024-03-23T14:23:24;18.50;;;11.90;;
46689;SDS011;32423;45.398;10.874;2024-03-23T14:26:19;23.75;;;13.65;;
46689;SDS011;32423;45.398;10.874;2024-03-23T14:29:13;21.48;;;13.55;;
46689;SDS011;32423;45.398;10.874;2024-03-23T14:32:03;20.20;;;12.23;;
46689;SDS011;32423;45.398;10.874;2024-03-23T14:34:59;19.23;;;13.20;;
46689;SDS011;32423;45.398;10.874;2024-03-23T14:37:58;22.88;;;12.48;;
46689;SDS011;32423;45.398;10.874;2024-03-23T14:40:52;23.75;;;13.10;;
46689;SDS011;32423;45.398;10.874;2024-03-23T14:43:49;20.42;;;11.63;;
46689;SDS011;32423;45.398;10.874;2024-03-23T14:46:44;20.50;;;12.35;;
46689;SDS011;32423;45.398;10.874;2024-03-23T14:49:33;23.77;;;13.80;;
46689;SDS011;32423;45.398;10.874;2024-03-23T14:52:22;38.00;;;13.68;;
46689;SDS011;32423;45.398;10.874;2024-03-23T14:55:18;23.65;;;12.65;;
46689;SDS011;32423;45.398;10.874;2024-03-23T14:58:10;30.60;;;11.48;;
46689;SDS011;32423;45.398;10.874;2024-03-23T15:01:03;27.02;;;13.20;;
46689;SDS011;32423;45.398;10.874;2024-03-23T15:03:58;24.08;;;11.77;;
46689;SDS011;32423;45.398;10.874;2024-03-23T15:06:55;21.70;;;12.90;;
46689;SDS011;32423;45.398;10.874;2024-03-23T15:09:50;25.48;;;12.50;;
46689;SDS011;32423;45.398;10.874;2024-03-23T15:12:42;19.02;;;12.02;;
46689;SDS011;32423;45.398;10.874;2024-03-23T15:15:34;21.05;;;12.55;;
46689;SDS011;32423;45.398;10.874;2024-03-23T15:18:29;23.70;;;12.88;;
46689;SDS011;32423;45.398;10.874;2024-03-23T15:21:22;34.58;;;14.52;;
46689;SDS011;32423;45.398;10.874;2024-03-23T15:24:14;24.65;;;14.73;;
46689;SDS011;32423;45.398;10.874;2024-03-23T15:27:08;22.17;;;12.43;;
46689;SDS011;32423;45.398;10.874;2024-03-23T15:30:00;39.47;;;13.25;;
46689;SDS011;32423;45.398;10.874;2024-03-23T15:32:57;22.88;;;12.77;;
46689;SDS011;32423;45.398;10.874;2024-03-23T15:35:49;29.40;;;13.52;;
46689;SDS011;32423;45.398;10.874;2024-03-23T15:38:38;22.60;;;11.77;;
46689;SDS011;32423;45.398;10.874;2024-03-23T15:41:33;46.15;;;15.45;;
46689;SDS011;32423;45.398;10.874;2024-03-23T15:44:25;37.60;;;14.13;;
46689;SDS011;32423;45.398;10.874;2024-03-23T15:47:23;24.92;;;13.00;;
46689;SDS011;32423;45.398;10.874;2024-03-23T15:50:18;23.77;;;13.60;;
46689;SDS011;32423;45.398;10.874;2024-03-23T15:53:12;30.63;;;14.20;;
46689;SDS011;32423;45.398;10.874;2024-03-23T15:56:04;20.77;;;14.85;;
46689;SDS011;32423;45.398;10.874;2024-03-23T15:58:56;20.83;;;12.93;;
46689;SDS011;32423;45.398;10.874;2024-03-23T16:01:54;23.77;;;13.20;;
46689;SDS011;32423;45.398;10.874;2024-03-23T16:04:44;21.73;;;13.63;;
46689;SDS011;32423;45.398;10.874;2024-03-23T16:07:36;22.55;;;13.27;;
46689;SDS011;32423;45.398;10.874;2024-03-23T16:10:28;23.95;;;12.82;;
46689;SDS011;32423;45.398;10.874;2024-03-23T16:13:26;27.02;;;13.82;;
46689;SDS011;32423;45.398;10.874;2024-03-23T16:16:18;46.42;;;16.58;;
46689;SDS011;32423;45.398;10.874;2024-03-23T16:19:12;28.98;;;13.07;;
46689;SDS011;32423;45.398;10.874;2024-03-23T16:22:07;23.08;;;12.82;;
46689;SDS011;32423;45.398;10.874;2024-03-23T16:25:02;28.52;;;13.35;;
46689;SDS011;32423;45.398;10.874;2024-03-23T16:27:56;28.20;;;11.63;;
46689;SDS011;32423;45.398;10.874;2024-03-23T16:30:52;22.80;;;13.98;;
46689;SDS011;32423;45.398;10.874;2024-03-23T16:33:44;21.48;;;13.25;;
46689;SDS011;32423;45.398;10.874;2024-03-23T16:36:38;19.00;;;12.98;;
46689;SDS011;32423;45.398;10.874;2024-03-23T16:39:30;29.02;;;12.75;;
46689;SDS011;32423;45.398;10.874;2024-03-23T16:42:25;20.88;;;13.05;;
46689;SDS011;32423;45.398;10.874;2024-03-23T16:45:17;20.45;;;12.63;;
46689;SDS011;32423;45.398;10.874;2024-03-23T16:48:11;28.42;;;12.65;;
46689;SDS011;32423;45.398;10.874;2024-03-23T16:51:06;26.98;;;12.80;;
46689;SDS011;32423;45.398;10.874;2024-03-23T16:54:02;28.05;;;13.27;;
46689;SDS011;32423;45.398;10.874;2024-03-23T16:56:54;18.80;;;11.73;;
46689;SDS011;32423;45.398;10.874;2024-03-23T16:59:48;16.00;;;11.63;;
46689;SDS011;32423;45.398;10.874;2024-03-23T17:02:43;19.45;;;11.95;;
46689;SDS011;32423;45.398;10.874;2024-03-23T17:05:40;20.42;;;12.52;;
46689;SDS011;32423;45.398;10.874;2024-03-23T17:08:32;22.20;;;11.77;;
46689;SDS011;32423;45.398;10.874;2024-03-23T17:11:24;20.58;;;11.57;;
46689;SDS011;32423;45.398;10.874;2024-03-23T17:14:19;19.40;;;11.23;;
46689;SDS011;32423;45.398;10.874;2024-03-23T17:17:13;21.35;;;11.25;;
46689;SDS011;32423;45.398;10.874;2024-03-23T17:20:06;22.08;;;13.43;;
46689;SDS011;32423;45.398;10.874;2024-03-23T17:23:01;17.98;;;11.55;;
46689;SDS011;32423;45.398;10.874;2024-03-23T17:25:55;24.75;;;12.00;;
46689;SDS011;32423;45.398;10.874;2024-03-23T17:28:50;18.23;;;12.15;;
46689;SDS011;32423;45.398;10.874;2024-03-23T17:31:44;20.70;;;12.63;;
46689;SDS011;32423;45.398;10.874;2024-03-23T17:34:39;16.73;;;11.93;;
46689;SDS011;32423;45.398;10.874;2024-03-23T17:37:34;16.45;;;11.18;;
46689;SDS011;32423;45.398;10.874;2024-03-23T17:40:23;24.27;;;11.63;;
46689;SDS011;32423;45.398;10.874;2024-03-23T17:43:15;20.13;;;11.55;;
46689;SDS011;32423;45.398;10.874;2024-03-23T17:46:10;16.05;;;11.35;;
46689;SDS011;32423;45.398;10.874;2024-03-23T17:49:04;20.70;;;10.88;;
46689;SDS011;32423;45.398;10.874;2024-03-23T17:51:59;32.47;;;14.98;;
46689;SDS011;32423;45.398;10.874;2024-03-23T17:54:57;22.50;;;11.45;;
46689;SDS011;32423;45.398;10.874;2024-03-23T17:57:52;17.98;;;11.75;;
46689;SDS011;32423;45.398;10.874;2024-03-23T18:00:51;17.05;;;10.93;;